Etusivu
METAR-TAF:

METAR-TAF

Lentoasemat :

Menomonie Municipal Airport (Score Field)

Menomonie, Wisconsin, Yhdysvallat

Leveyspiiri: 44-53-32N, Pituuspiiri: 091-52-04W, korkeus merenpinnasta: 273 m

Tämänhetkinen sää

Tämä raportti tehtiin 18 minuuttia sitten, kello 20.35 UTC
Tuuli 9 kn luoteesta puuskistuen 15 kn:hen
Lämpötila -3°C
Kosteus 50%
Ilmanpaine 1022 hPa
Näkyvyys: 16.1 km
Pilvistä 4600 ft:n korkeudessa

METAR: KLUM 262035Z AUTO 31009G15KT 10SM OVC046 M03/M12 A3019 RMK AO2 T10341122

Aika: 14:53 (20:53 UTC)


TAF: puuttuu

Säähavainnot ja -ennusteet yli 4000 lentoasemalta (METAR- ja TAF-raportit).

Käytössä olevat sääasemat on merkitty karttaan keltaisilla ja punaisilla pisteillä.

Aseta hiiri pisteen päälle nähdäksesi sääaseman nimen.

Klikkaa sitten nähdäksesi säähavainnot ja -ennusteet.

Kartan vaihtaminen: klikkaa mustalla rastilla varustettuja vihreitä pisteitä, niin voit zoomata sisään; viivalla varustettua vihreää pistettä, niin voit zoomata ulos tai vihreitä nuolia, niin pääset viereisille kartoille.


METAR-TAF: